Time;durP1;ratioP1;P1;durP2;ratioP2;P2;SDS_P1;SDS_P2;PMS_P1;PMS_P2;Temp;Humidity;BMP_temperature;BMP_pressure;BME280_temperature;BME280_humidity;BME280_pressure;Samples;Min_cycle;Max_cycle;Signal;HPM_P1;HPM_P2
2021/06/10 00:00:39;;;;;;;2.35;1.30;;;17.90;67.50;;;;;;5055703;28;20021;-86
2021/06/10 00:03:05;;;;;;;6.68;1.40;;;17.90;67.70;;;;;;5038418;28;20499;-84
2021/06/10 00:05:32;;;;;;;2.80;0.95;;;17.90;67.90;;;;;;5055859;28;20040;-83
2021/06/10 00:07:58;;;;;;;2.45;1.00;;;17.80;68.00;;;;;;5037955;28;20021;-84
2021/06/10 00:10:26;;;;;;;4.70;1.42;;;17.80;68.20;;;;;;5021922;28;20053;-84
2021/06/10 00:12:53;;;;;;;2.72;1.33;;;17.80;68.40;;;;;;5054184;28;20029;-84
2021/06/10 00:15:22;;;;;;;4.13;1.08;;;17.80;68.50;;;;;;5038441;28;20029;-85
2021/06/10 00:17:48;;;;;;;3.30;1.30;;;17.80;68.60;;;;;;5055200;28;20141;-83
2021/06/10 00:20:16;;;;;;;3.70;1.30;;;17.80;68.70;;;;;;5037800;28;20489;-84
2021/06/10 00:22:43;;;;;;;2.35;1.17;;;17.70;68.80;;;;;;5054820;28;20056;-84
2021/06/10 00:25:09;;;;;;;3.58;1.00;;;17.70;69.00;;;;;;5054355;28;20041;-83
2021/06/10 00:27:36;;;;;;;3.05;1.58;;;17.70;69.20;;;;;;5054597;28;20091;-83
2021/06/10 00:30:09;;;;;;;2.92;1.45;;;17.70;69.40;;;;;;5055733;28;20094;-84
2021/06/10 00:32:35;;;;;;;4.07;1.30;;;17.60;69.60;;;;;;5054223;28;20032;-83
2021/06/10 00:35:01;;;;;;;2.67;1.40;;;17.60;70.00;;;;;;5055359;28;20053;-83
2021/06/10 00:37:26;;;;;;;3.13;1.55;;;17.50;70.90;;;;;;5037429;28;20029;-83
2021/06/10 00:39:52;;;;;;;2.88;1.42;;;17.50;71.50;;;;;;5037486;28;20082;-83
2021/06/10 00:42:17;;;;;;;2.88;1.52;;;17.40;71.80;;;;;;5054135;28;20079;-83
2021/06/10 00:44:44;;;;;;;2.60;1.23;;;17.40;72.20;;;;;;5054403;28;20068;-83
2021/06/10 00:47:09;;;;;;;3.38;1.42;;;17.40;72.60;;;;;;5054591;28;20025;-83
2021/06/10 00:49:35;;;;;;;3.03;1.60;;;17.40;73.10;;;;;;5055547;28;20040;-83
2021/06/10 00:52:02;;;;;;;3.20;1.48;;;17.30;73.50;;;;;;5037063;28;20116;-83
2021/06/10 00:54:28;;;;;;;5.07;1.80;;;17.30;73.70;;;;;;5054307;28;20028;-83
2021/06/10 00:56:55;;;;;;;2.72;1.50;;;17.30;73.60;;;;;;5037621;28;20021;-83
2021/06/10 00:59:20;;;;;;;4.45;1.80;;;17.30;73.50;;;;;;5054246;28;20110;-84
2021/06/10 01:01:46;;;;;;;4.65;1.77;;;17.30;73.50;;;;;;5053822;28;20472;-83
2021/06/10 01:04:12;;;;;;;2.90;1.60;;;17.30;73.40;;;;;;5054265;28;20049;-85
2021/06/10 01:06:53;;;;;;;2.95;1.55;;;17.30;73.20;;;;;;5053736;28;20029;-84
2021/06/10 01:09:36;;;;;;;4.78;2.35;;;17.20;73.00;;;;;;5055168;28;20108;-85
2021/06/10 01:12:35;;;;;;;3.40;1.80;;;17.20;72.60;;;;;;5053928;28;20036;-85
2021/06/10 01:15:11;;;;;;;3.55;1.73;;;17.20;72.50;;;;;;5053605;28;20017;-85
2021/06/10 01:17:47;;;;;;;2.92;1.90;;;17.20;72.60;;;;;;5053800;28;20490;-85
2021/06/10 01:20:32;;;;;;;3.28;2.10;;;17.20;72.70;;;;;;5054019;28;20401;-85
2021/06/10 01:22:57;;;;;;;4.85;2.10;;;17.10;73.30;;;;;;5053617;28;20021;-84
2021/06/10 01:26:02;;;;;;;5.43;2.25;;;17.10;73.30;;;;;;5053379;28;20385;-85
2021/06/10 01:28:35;;;;;;;3.45;1.83;;;17.10;73.60;;;;;;5054914;28;20507;-86
2021/06/10 01:31:13;;;;;;;4.78;1.75;;;17.00;73.70;;;;;;5054533;28;20433;-86
2021/06/10 01:34:02;;;;;;;3.65;2.20;;;17.00;74.10;;;;;;5037408;28;20127;-86
2021/06/10 01:36:35;;;;;;;4.70;2.15;;;17.00;74.40;;;;;;5053211;28;20545;-86
2021/06/10 01:39:12;;;;;;;4.18;2.25;;;17.00;74.50;;;;;;5053651;28;20086;-85
2021/06/10 01:41:41;;;;;;;6.28;3.08;;;16.90;74.80;;;;;;5054814;28;20025;-85
2021/06/10 01:44:09;;;;;;;4.95;3.05;;;16.90;75.00;;;;;;5053335;28;20083;-86
2021/06/10 01:46:36;;;;;;;8.60;2.80;;;16.90;75.00;;;;;;5037094;28;20033;-84
2021/06/10 01:49:05;;;;;;;6.57;2.65;;;16.80;75.10;;;;;;5054539;28;20033;-85
2021/06/10 01:51:32;;;;;;;5.35;3.22;;;16.80;75.40;;;;;;5054502;28;20021;-85
2021/06/10 01:54:02;;;;;;;4.78;2.90;;;16.80;75.70;;;;;;5052936;28;20029;-85
2021/06/10 01:56:29;;;;;;;6.22;3.08;;;16.70;75.90;;;;;;5053117;28;20031;-85
2021/06/10 01:58:58;;;;;;;4.45;2.60;;;16.70;76.30;;;;;;5036920;28;20033;-85
2021/06/10 02:01:25;;;;;;;4.68;2.80;;;16.70;76.70;;;;;;5052608;28;20025;-85
2021/06/10 02:03:54;;;;;;;6.68;3.20;;;16.70;76.90;;;;;;5054023;28;20527;-84
2021/06/10 02:06:20;;;;;;;5.18;3.45;;;16.60;77.20;;;;;;5035704;28;20142;-85
2021/06/10 02:08:48;;;;;;;5.50;2.80;;;16.60;77.40;;;;;;5019990;28;20385;-83
2021/06/10 02:11:15;;;;;;;7.50;3.45;;;16.60;77.60;;;;;;5053814;28;20469;-84
2021/06/10 02:13:44;;;;;;;4.28;2.60;;;16.50;77.90;;;;;;5036376;28;20087;-84
2021/06/10 02:16:10;;;;;;;5.38;3.13;;;16.50;78.20;;;;;;5052231;28;20025;-84
2021/06/10 02:18:38;;;;;;;6.80;2.90;;;16.50;78.30;;;;;;5052591;28;20059;-85
2021/06/10 02:21:06;;;;;;;5.85;2.45;;;16.50;78.60;;;;;;5053960;28;20485;-85
2021/06/10 02:23:38;;;;;;;5.25;3.03;;;16.40;78.80;;;;;;5052097;28;20041;-83
2021/06/10 02:26:05;;;;;;;7.28;3.10;;;16.40;79.70;;;;;;5054108;28;20108;-84
2021/06/10 02:28:31;;;;;;;5.32;3.10;;;16.40;79.10;;;;;;5052324;28;20029;-83
2021/06/10 02:30:58;;;;;;;6.07;3.80;;;16.30;79.10;;;;;;5052813;28;20124;-83
2021/06/10 02:33:24;;;;;;;7.35;3.47;;;16.30;79.30;;;;;;5035839;28;20045;-83
2021/06/10 02:35:49;;;;;;;5.43;3.72;;;16.30;79.50;;;;;;5051705;28;20048;-83
2021/06/10 02:38:19;;;;;;;6.68;3.15;;;16.30;79.50;;;;;;5052297;28;20126;-83
2021/06/10 02:40:47;;;;;;;5.97;3.60;;;16.20;79.60;;;;;;5051729;28;20036;-83
2021/06/10 02:43:13;;;;;;;6.97;4.20;;;16.20;79.50;;;;;;5052294;28;20048;-83
2021/06/10 02:45:42;;;;;;;5.25;3.63;;;16.20;79.40;;;;;;5052242;28;20071;-84
2021/06/10 02:48:09;;;;;;;5.43;3.75;;;16.20;79.10;;;;;;5052151;28;20055;-84
2021/06/10 02:50:36;;;;;;;7.43;4.20;;;16.10;79.00;;;;;;5035157;28;20040;-83
2021/06/10 02:53:04;;;;;;;5.20;3.85;;;16.10;79.30;;;;;;5035215;28;20082;-83
2021/06/10 02:55:32;;;;;;;5.93;3.60;;;16.10;79.40;;;;;;5051929;28;20032;-83
2021/06/10 02:57:59;;;;;;;5.55;3.45;;;16.10;79.60;;;;;;5053026;28;20056;-83
2021/06/10 03:00:29;;;;;;;5.43;2.50;;;16.00;79.60;;;;;;5035416;28;20404;-83
2021/06/10 03:02:55;;;;;;;6.55;4.03;;;16.00;79.70;;;;;;5051797;28;20111;-82
2021/06/10 03:05:24;;;;;;;6.60;3.67;;;16.00;79.60;;;;;;5051636;28;20124;-83
2021/06/10 03:07:51;;;;;;;8.10;3.70;;;15.90;79.70;;;;;;5051423;28;20032;-83
2021/06/10 03:10:19;;;;;;;5.65;4.32;;;15.80;79.60;;;;;;5035081;28;20488;-82
2021/06/10 03:12:45;;;;;;;6.93;4.72;;;15.80;79.70;;;;;;5035098;28;20029;-82
2021/06/10 03:15:11;;;;;;;7.40;4.95;;;15.70;79.60;;;;;;5035442;28;20059;-82
2021/06/10 03:17:41;;;;;;;6.57;5.03;;;15.70;79.80;;;;;;5052530;28;20396;-82
2021/06/10 03:20:08;;;;;;;8.93;4.65;;;15.80;80.20;;;;;;5052697;28;20382;-83
2021/06/10 03:22:35;;;;;;;9.32;5.13;;;15.60;80.40;;;;;;5052490;28;20029;-82
2021/06/10 03:25:03;;;;;;;7.72;5.25;;;15.50;80.60;;;;;;5035135;28;20132;-81
2021/06/10 03:27:31;;;;;;;12.95;5.32;;;15.50;80.90;;;;;;5052205;28;20435;-81
2021/06/10 03:29:57;;;;;;;9.57;5.78;;;15.50;81.20;;;;;;5055113;28;20029;-81
2021/06/10 03:32:25;;;;;;;8.73;5.57;;;15.40;81.30;;;;;;5022337;28;20366;-81
2021/06/10 03:34:51;;;;;;;8.45;5.00;;;15.40;81.70;;;;;;5056642;28;20060;-82
2021/06/10 03:37:17;;;;;;;9.10;5.38;;;15.40;82.00;;;;;;5038860;28;20049;-82
2021/06/10 03:39:45;;;;;;;9.60;5.70;;;15.40;82.30;;;;;;5055801;28;20025;-81
2021/06/10 03:42:12;;;;;;;9.60;4.80;;;15.40;82.40;;;;;;5055247;28;20025;-84
2021/06/10 03:44:38;;;;;;;8.68;4.53;;;15.30;82.50;;;;;;5055137;28;20052;-83
2021/06/10 03:47:05;;;;;;;7.78;5.40;;;15.30;82.70;;;;;;5055635;28;20060;-84
2021/06/10 03:49:32;;;;;;;7.20;5.00;;;15.30;82.80;;;;;;5055011;28;20083;-84
2021/06/10 03:51:58;;;;;;;6.10;4.03;;;15.30;83.00;;;;;;5055145;28;20396;-84
2021/06/10 03:54:24;;;;;;;6.68;4.03;;;15.30;83.20;;;;;;5055156;28;20025;-82
2021/06/10 03:56:50;;;;;;;6.18;4.00;;;15.20;83.20;;;;;;5054706;28;20075;-82
2021/06/10 03:59:16;;;;;;;6.75;3.72;;;15.20;83.30;;;;;;5055211;28;20021;-83
2021/06/10 04:01:42;;;;;;;8.57;4.55;;;15.20;83.50;;;;;;5041862;28;20021;-83
2021/06/10 04:04:08;;;;;;;6.35;4.25;;;15.20;83.60;;;;;;5019517;28;20136;-81
2021/06/10 04:06:37;;;;;;;5.80;3.85;;;15.20;83.70;;;;;;5017589;28;20108;-82
2021/06/10 04:09:06;;;;;;;8.50;4.25;;;15.20;83.80;;;;;;5035711;28;20373;-83
2021/06/10 04:11:32;;;;;;;5.85;3.88;;;15.20;83.90;;;;;;5034887;28;20055;-83
2021/06/10 04:13:59;;;;;;;7.47;4.80;;;15.20;84.00;;;;;;5035178;28;20037;-81
2021/06/10 04:16:25;;;;;;;7.68;4.72;;;15.20;84.00;;;;;;5034174;28;20420;-83
2021/06/10 04:18:51;;;;;;;6.03;4.28;;;15.20;84.20;;;;;;5035715;28;20038;-84
2021/06/10 04:21:18;;;;;;;7.47;4.32;;;15.20;84.30;;;;;;5035109;28;20029;-83
2021/06/10 04:23:43;;;;;;;9.05;4.13;;;15.30;84.40;;;;;;5035923;28;20124;-82
2021/06/10 04:26:09;;;;;;;8.68;5.55;;;15.30;84.40;;;;;;5018138;28;20121;-83
2021/06/10 04:28:35;;;;;;;8.15;5.25;;;15.30;84.30;;;;;;5034935;28;20032;-83
2021/06/10 04:31:01;;;;;;;8.35;5.80;;;15.40;84.20;;;;;;5034642;28;20033;-83
2021/06/10 04:33:30;;;;;;;9.77;6.07;;;15.40;84.20;;;;;;5034661;28;20034;-83
2021/06/10 04:35:56;;;;;;;11.20;6.35;;;15.40;84.10;;;;;;5034013;28;20049;-84
2021/06/10 04:38:21;;;;;;;9.23;6.47;;;15.50;84.10;;;;;;5017958;28;20392;-84
2021/06/10 04:40:47;;;;;;;9.68;6.68;;;15.50;84.00;;;;;;5033413;28;20033;-83
2021/06/10 04:43:13;;;;;;;10.43;7.28;;;15.50;83.80;;;;;;5034536;28;20033;-84
2021/06/10 04:45:39;;;;;;;10.00;7.25;;;15.60;83.60;;;;;;5034886;28;20025;-84
2021/06/10 04:48:06;;;;;;;10.38;7.13;;;15.60;83.50;;;;;;5035406;28;20025;-84
2021/06/10 04:50:34;;;;;;;9.68;7.28;;;15.70;83.40;;;;;;5035925;28;20479;-83
2021/06/10 04:53:02;;;;;;;8.82;6.88;;;15.70;83.40;;;;;;5035421;28;20025;-84
2021/06/10 04:55:28;;;;;;;9.98;6.65;;;15.80;83.40;;;;;;5034493;28;20029;-84
2021/06/10 04:57:53;;;;;;;8.77;6.50;;;15.80;83.50;;;;;;5035689;28;20112;-82
2021/06/10 05:00:19;;;;;;;9.98;6.97;;;15.90;83.60;;;;;;5033874;28;20033;-83
2021/06/10 05:02:45;;;;;;;10.57;7.82;;;15.90;83.60;;;;;;5035079;28;20044;-83
2021/06/10 05:05:11;;;;;;;11.10;7.30;;;15.90;83.50;;;;;;5033531;28;20045;-82
2021/06/10 05:07:37;;;;;;;10.13;7.68;;;16.00;83.40;;;;;;5017656;28;20032;-82
2021/06/10 05:10:04;;;;;;;12.25;8.05;;;16.00;83.00;;;;;;5035087;28;20029;-83
2021/06/10 05:12:30;;;;;;;12.05;8.02;;;16.00;82.70;;;;;;5033745;28;20025;-86
2021/06/10 05:14:55;;;;;;;11.48;8.18;;;16.10;82.30;;;;;;5033589;28;20033;-83
2021/06/10 05:17:21;;;;;;;10.93;7.85;;;16.10;81.80;;;;;;5033420;28;20041;-83
2021/06/10 05:19:47;;;;;;;11.00;7.80;;;16.20;81.50;;;;;;5039154;28;20040;-83
2021/06/10 05:22:12;;;;;;;12.27;7.82;;;16.20;81.30;;;;;;5034961;28;20028;-82
2021/06/10 05:24:40;;;;;;;13.02;7.70;;;16.30;81.20;;;;;;5018356;28;20132;-84
2021/06/10 05:27:09;;;;;;;9.80;7.22;;;16.30;80.90;;;;;;5053216;28;20044;-83
2021/06/10 05:29:35;;;;;;;12.18;6.90;;;16.30;80.90;;;;;;5052904;28;20021;-82
2021/06/10 05:32:03;;;;;;;10.77;7.65;;;16.40;80.90;;;;;;5052066;28;20021;-83
2021/06/10 05:34:29;;;;;;;10.25;6.95;;;16.50;80.90;;;;;;5052418;28;20021;-83
2021/06/10 05:36:55;;;;;;;10.52;7.78;;;16.50;80.80;;;;;;5038342;28;20076;-83
2021/06/10 05:39:21;;;;;;;13.55;7.40;;;16.60;80.80;;;;;;5032513;28;20120;-86
2021/06/10 05:41:47;;;;;;;12.10;7.80;;;16.60;80.70;;;;;;5050773;28;20104;-84
2021/06/10 05:44:13;;;;;;;12.68;8.30;;;16.60;80.90;;;;;;5049788;28;20048;-84
2021/06/10 05:46:40;;;;;;;11.63;7.90;;;16.60;80.90;;;;;;5040516;28;20029;-84
2021/06/10 05:49:06;;;;;;;15.45;8.45;;;16.70;80.80;;;;;;5050544;28;20381;-84
2021/06/10 05:51:32;;;;;;;13.20;9.63;;;16.80;80.90;;;;;;5048225;28;20025;-83
2021/06/10 05:53:57;;;;;;;12.75;9.13;;;16.80;81.00;;;;;;5032815;28;20021;-84
2021/06/10 05:56:23;;;;;;;11.40;8.18;;;16.90;81.00;;;;;;5047668;28;20112;-83
2021/06/10 05:58:49;;;;;;;13.90;8.95;;;16.90;81.00;;;;;;5035852;28;20037;-86
2021/06/10 06:01:14;;;;;;;11.55;7.68;;;17.00;81.10;;;;;;5032588;28;20029;-85
2021/06/10 06:03:41;;;;;;;15.45;9.18;;;17.00;81.20;;;;;;5016744;28;20136;-84
2021/06/10 06:06:07;;;;;;;13.70;9.38;;;17.10;81.40;;;;;;5016404;28;20033;-83
2021/06/10 06:08:33;;;;;;;12.93;9.63;;;17.10;81.40;;;;;;5032585;28;20036;-83
2021/06/10 06:11:03;;;;;;;13.40;9.60;;;17.20;81.40;;;;;;5034215;28;20025;-85
2021/06/10 06:13:48;;;;;;;13.35;10.52;;;17.30;81.60;;;;;;5032731;28;20025;-84
2021/06/10 06:16:16;;;;;;;11.93;9.05;;;17.30;81.50;;;;;;5034464;28;20025;-85
2021/06/10 06:18:43;;;;;;;13.73;9.98;;;17.40;81.50;;;;;;5032536;28;20030;-84
2021/06/10 06:21:10;;;;;;;12.60;9.27;;;17.50;82.20;;;;;;5033397;28;20037;-86
2021/06/10 06:23:35;;;;;;;14.30;11.70;;;17.50;81.50;;;;;;5033810;28;20048;-83
2021/06/10 06:26:02;;;;;;;17.95;11.93;;;17.60;81.40;;;;;;5032326;28;20025;-83
2021/06/10 06:28:28;;;;;;;13.75;9.82;;;17.60;81.30;;;;;;5031937;28;20045;-83
2021/06/10 06:30:54;;;;;;;14.18;10.82;;;17.70;81.40;;;;;;4999487;28;20021;-83
2021/06/10 06:33:19;;;;;;;16.42;11.50;;;17.80;81.30;;;;;;5032192;28;20029;-85
2021/06/10 06:35:45;;;;;;;15.25;11.40;;;17.80;80.90;;;;;;4999144;28;20140;-84
2021/06/10 06:38:11;;;;;;;13.50;10.70;;;17.90;80.70;;;;;;5016363;28;20485;-84
2021/06/10 06:40:38;;;;;;;17.73;10.20;;;17.90;80.30;;;;;;5032342;28;20033;-84
2021/06/10 06:43:05;;;;;;;15.07;10.70;;;18.00;80.20;;;;;;5032307;28;20018;-83
2021/06/10 06:45:31;;;;;;;13.85;9.43;;;18.00;79.90;;;;;;5033351;28;20045;-84
2021/06/10 06:47:57;;;;;;;14.75;10.30;;;18.10;79.80;;;;;;5015759;28;20095;-84
2021/06/10 06:50:23;;;;;;;14.07;9.25;;;18.20;79.60;;;;;;5030910;28;20028;-83
2021/06/10 06:52:48;;;;;;;11.93;9.13;;;18.30;79.40;;;;;;5031158;28;20140;-83
2021/06/10 06:55:14;;;;;;;15.18;10.80;;;18.30;79.40;;;;;;5015452;28;20052;-82
2021/06/10 06:57:40;;;;;;;13.00;9.75;;;18.40;79.40;;;;;;5031615;28;20048;-84
2021/06/10 07:00:06;;;;;;;12.90;9.45;;;18.40;79.30;;;;;;5031570;28;20021;-84
2021/06/10 07:02:32;;;;;;;12.95;8.90;;;18.50;79.20;;;;;;5031407;28;20116;-83
2021/06/10 07:04:57;;;;;;;14.40;10.25;;;18.60;78.60;;;;;;5015475;28;20446;-85
2021/06/10 07:07:23;;;;;;;11.10;8.80;;;18.60;77.50;;;;;;5014926;28;20081;-83
2021/06/10 07:09:49;;;;;;;13.40;8.63;;;18.70;77.40;;;;;;5015504;28;20030;-83
2021/06/10 07:12:14;;;;;;;11.50;8.00;;;18.70;77.10;;;;;;5015306;28;20118;-84
2021/06/10 07:14:40;;;;;;;10.95;7.43;;;18.80;76.30;;;;;;5015252;28;20025;-84
2021/06/10 07:17:06;;;;;;;10.32;6.65;;;18.80;75.30;;;;;;5033450;28;20491;-85
2021/06/10 07:19:32;;;;;;;10.50;6.93;;;18.90;74.60;;;;;;5015528;28;20030;-84
2021/06/10 07:21:58;;;;;;;8.57;6.03;;;19.00;73.60;;;;;;5015327;28;20030;-84
2021/06/10 07:24:23;;;;;;;9.85;6.05;;;19.10;73.00;;;;;;5032795;28;20120;-84
2021/06/10 07:26:49;;;;;;;6.75;4.45;;;19.10;72.40;;;;;;5015518;28;20386;-84
2021/06/10 07:29:16;;;;;;;6.65;3.95;;;19.20;70.20;;;;;;5015260;28;20037;-83
2021/06/10 07:31:43;;;;;;;6.50;3.72;;;19.30;69.40;;;;;;5015900;28;20473;-85
2021/06/10 07:34:09;;;;;;;6.55;3.70;;;19.30;68.60;;;;;;5015185;28;20025;-84
2021/06/10 07:36:35;;;;;;;8.13;2.70;;;19.40;67.90;;;;;;5032754;28;20557;-83
2021/06/10 07:39:04;;;;;;;4.47;2.20;;;19.50;66.50;;;;;;5032027;28;20112;-85
2021/06/10 07:41:30;;;;;;;7.03;2.10;;;19.60;64.30;;;;;;5033133;28;20466;-86
2021/06/10 07:43:56;;;;;;;3.88;1.88;;;19.60;62.30;;;;;;5014944;28;20041;-85
2021/06/10 07:46:21;;;;;;;6.60;2.60;;;19.70;60.70;;;;;;5031245;28;20030;-84
2021/06/10 07:48:47;;;;;;;6.30;2.45;;;19.80;58.70;;;;;;5025493;28;20120;-86
2021/06/10 07:51:13;;;;;;;6.13;2.80;;;19.90;59.10;;;;;;5034706;28;20029;-87
2021/06/10 07:53:39;;;;;;;7.18;3.42;;;20.00;59.50;;;;;;5051115;28;20052;-78
2021/06/10 07:56:05;;;;;;;5.60;3.00;;;20.00;59.50;;;;;;5051112;28;20033;-78
2021/06/10 07:58:32;;;;;;;10.45;4.13;;;20.10;59.80;;;;;;5050546;28;20041;-78
2021/06/10 08:00:58;;;;;;;6.13;3.63;;;20.20;60.00;;;;;;5036527;28;20022;-78
2021/06/10 08:03:24;;;;;;;5.78;3.92;;;20.30;60.00;;;;;;5031254;28;20176;-78
2021/06/10 08:05:51;;;;;;;7.95;4.32;;;20.30;59.80;;;;;;5031093;28;20113;-77
2021/06/10 08:08:17;;;;;;;6.93;3.70;;;20.40;59.30;;;;;;5031580;28;20354;-78
2021/06/10 08:10:45;;;;;;;8.48;4.78;;;20.50;59.50;;;;;;5030888;28;20025;-79
2021/06/10 08:13:11;;;;;;;6.85;3.45;;;20.50;59.20;;;;;;5031347;28;20029;-78
2021/06/10 08:15:37;;;;;;;7.22;3.42;;;20.60;59.60;;;;;;5036154;28;20120;-78
2021/06/10 08:18:03;;;;;;;6.13;3.78;;;20.60;59.60;;;;;;5034333;28;20051;-78
2021/06/10 08:20:30;;;;;;;7.03;2.83;;;20.70;59.50;;;;;;5034285;28;20041;-78
2021/06/10 08:22:59;;;;;;;6.10;3.58;;;20.80;59.10;;;;;;5035864;28;20366;-77
2021/06/10 08:25:28;;;;;;;4.35;2.53;;;20.90;58.90;;;;;;5034874;28;20041;-81
2021/06/10 08:27:55;;;;;;;5.07;2.70;;;20.90;59.50;;;;;;5038191;28;20025;-78
2021/06/10 08:30:21;;;;;;;9.30;3.97;;;21.00;59.00;;;;;;5035706;28;20030;-79
2021/06/10 08:32:47;;;;;;;7.07;3.85;;;21.10;59.20;;;;;;5034368;28;20354;-79
2021/06/10 08:35:13;;;;;;;7.80;4.50;;;21.10;59.10;;;;;;5036232;28;20477;-78
2021/06/10 08:37:39;;;;;;;6.18;3.63;;;21.20;59.10;;;;;;5015161;28;20405;-77
2021/06/10 08:40:08;;;;;;;5.45;3.17;;;21.30;59.10;;;;;;5015792;28;20034;-76
2021/06/10 08:42:38;;;;;;;5.57;2.63;;;21.30;59.10;;;;;;5014070;28;20076;-77
2021/06/10 08:45:17;;;;;;;6.32;4.03;;;21.40;59.30;;;;;;5014510;28;20489;-80
2021/06/10 08:47:47;;;;;;;8.73;4.43;;;21.50;59.20;;;;;;5030936;28;20466;-80
2021/06/10 08:50:18;;;;;;;5.22;3.63;;;21.60;59.60;;;;;;5014436;28;20053;-79
2021/06/10 08:52:43;;;;;;;5.07;3.42;;;21.60;59.70;;;;;;5014547;28;20026;-78
2021/06/10 08:55:09;;;;;;;6.45;3.90;;;21.70;59.60;;;;;;5014118;28;20037;-80
2021/06/10 08:57:35;;;;;;;7.88;4.40;;;21.80;59.20;;;;;;5014172;28;20026;-78
2021/06/10 09:00:03;;;;;;;7.18;4.18;;;21.80;58.90;;;;;;5014281;28;20117;-80
2021/06/10 09:02:29;;;;;;;5.90;3.67;;;21.90;58.90;;;;;;5030541;28;20030;-78
2021/06/10 09:05:12;;;;;;;6.90;3.95;;;22.00;58.80;;;;;;5014292;28;20136;-79
2021/06/10 09:07:45;;;;;;;6.78;3.83;;;22.00;58.20;;;;;;5014026;28;20022;-77
2021/06/10 09:10:12;;;;;;;7.80;4.43;;;22.10;58.50;;;;;;5014135;28;20080;-78
2021/06/10 09:12:51;;;;;;;7.32;3.92;;;22.10;57.70;;;;;;5013959;28;20292;-78
2021/06/10 09:15:19;;;;;;;8.02;3.78;;;22.20;57.70;;;;;;5014022;28;20498;-78
2021/06/10 09:17:45;;;;;;;5.35;3.42;;;22.30;57.50;;;;;;5030142;28;20490;-79
2021/06/10 09:20:20;;;;;;;7.15;4.30;;;22.40;57.20;;;;;;5007823;28;20030;-80
2021/06/10 09:22:48;;;;;;;5.65;4.15;;;22.50;56.80;;;;;;5002881;28;20045;-81
2021/06/10 09:25:19;;;;;;;8.30;4.20;;;22.50;56.90;;;;;;5013089;28;20034;-79
2021/06/10 09:28:00;;;;;;;6.95;4.28;;;22.60;56.90;;;;;;5013649;28;20129;-78
2021/06/10 09:30:33;;;;;;;6.55;4.35;;;22.70;56.80;;;;;;5010067;28;20382;-78
2021/06/10 09:33:04;;;;;;;8.20;4.60;;;22.80;56.70;;;;;;5009919;28;20029;-78
2021/06/10 09:35:33;;;;;;;9.35;4.07;;;22.80;56.70;;;;;;4997630;28;20909;-79
2021/06/10 09:38:02;;;;;;;8.38;4.45;;;22.90;56.50;;;;;;5039326;28;20057;-79
2021/06/10 09:40:30;;;;;;;7.85;3.50;;;23.00;56.40;;;;;;5059673;28;20033;-78
2021/06/10 09:42:57;;;;;;;8.68;4.45;;;23.10;56.40;;;;;;5039683;28;20037;-80
2021/06/10 09:45:27;;;;;;;7.10;4.68;;;23.20;56.20;;;;;;5052176;28;20511;-80
2021/06/10 09:47:55;;;;;;;7.03;4.50;;;23.20;55.50;;;;;;5052854;28;20025;-77
2021/06/10 09:50:32;;;;;;;7.68;4.13;;;23.30;55.40;;;;;;5053961;28;20100;-82
2021/06/10 09:53:09;;;;;;;6.07;3.92;;;23.30;55.30;;;;;;5052824;28;20059;-82
2021/06/10 09:55:46;;;;;;;6.55;4.10;;;23.40;55.30;;;;;;5053786;28;20032;-84
2021/06/10 09:58:12;;;;;;;7.57;4.72;;;23.40;55.20;;;;;;5036659;28;20400;-84
2021/06/10 10:00:58;;;;;;;6.22;4.30;;;23.50;55.20;;;;;;5053002;28;20054;-82
2021/06/10 10:03:24;;;;;;;6.75;4.82;;;23.60;55.00;;;;;;5038286;28;20037;-82
2021/06/10 10:05:54;;;;;;;9.43;4.43;;;23.60;54.70;;;;;;5052954;28;20021;-83
2021/06/10 10:08:20;;;;;;;9.25;4.97;;;23.60;54.90;;;;;;5052316;28;20025;-82
2021/06/10 10:10:47;;;;;;;7.72;5.20;;;23.70;54.80;;;;;;5035989;28;20025;-79
2021/06/10 10:13:17;;;;;;;9.13;3.95;;;23.70;54.50;;;;;;5052742;28;20017;-83
2021/06/10 10:15:44;;;;;;;9.13;4.20;;;23.70;54.40;;;;;;5054329;28;20142;-83
2021/06/10 10:18:13;;;;;;;5.88;3.25;;;23.80;54.40;;;;;;5043213;28;20025;-83
2021/06/10 10:20:42;;;;;;;5.90;3.22;;;23.80;54.50;;;;;;5051031;28;20064;-82
2021/06/10 10:23:08;;;;;;;5.57;2.65;;;23.90;54.50;;;;;;5028692;28;20497;-82
2021/06/10 10:25:37;;;;;;;5.47;2.92;;;23.80;54.40;;;;;;5028761;28;20448;-82
2021/06/10 10:28:08;;;;;;;6.03;2.53;;;23.90;54.40;;;;;;5051578;28;20028;-82
2021/06/10 10:30:34;;;;;;;6.78;2.75;;;23.90;54.30;;;;;;5050578;28;20026;-83
2021/06/10 10:33:19;;;;;;;5.82;2.90;;;24.00;54.30;;;;;;5041306;28;20100;-83
2021/06/10 10:36:00;;;;;;;6.57;3.20;;;24.10;53.90;;;;;;5043846;28;20025;-82
2021/06/10 10:38:44;;;;;;;7.75;2.85;;;24.20;53.50;;;;;;5034208;28;20074;-82
2021/06/10 10:41:21;;;;;;;2.58;1.33;;;24.30;53.20;;;;;;5040250;28;20373;-82
2021/06/10 10:43:47;;;;;;;3.83;1.50;;;24.50;52.90;;;;;;5046468;28;20034;-82
2021/06/10 10:46:21;;;;;;;5.70;1.58;;;24.70;52.20;;;;;;5032010;28;20031;-82
2021/06/10 10:48:49;;;;;;;4.03;2.38;;;24.80;51.70;;;;;;5048760;28;20052;-83
2021/06/10 10:51:36;;;;;;;4.22;2.67;;;24.80;51.60;;;;;;5032944;28;20029;-83
2021/06/10 10:54:07;;;;;;;4.03;2.25;;;25.00;51.20;;;;;;5032878;28;20461;-83
2021/06/10 10:56:38;;;;;;;4.57;1.98;;;25.10;51.30;;;;;;5033351;28;20025;-83
2021/06/10 10:59:16;;;;;;;4.35;2.65;;;25.30;50.90;;;;;;5032018;28;20045;-83
2021/06/10 11:02:00;;;;;;;5.55;2.80;;;25.60;50.60;;;;;;5044902;28;20094;-83
2021/06/10 11:04:54;;;;;;;4.88;2.03;;;25.70;50.50;;;;;;5056686;28;20045;-83
2021/06/10 11:07:35;;;;;;;4.43;2.05;;;25.90;49.90;;;;;;5052070;28;20083;-82
2021/06/10 11:10:03;;;;;;;3.85;2.13;;;26.10;49.80;;;;;;5051583;28;20119;-83
2021/06/10 11:12:43;;;;;;;3.95;2.17;;;26.40;49.70;;;;;;5035034;28;20029;-83
2021/06/10 11:15:38;;;;;;;4.47;2.20;;;26.70;49.10;;;;;;5052791;28;20029;-83
2021/06/10 11:18:07;;;;;;;7.03;1.65;;;26.80;48.00;;;;;;5034380;28;20095;-87
2021/06/10 11:20:40;;;;;;;6.65;2.50;;;27.10;47.90;;;;;;5031831;28;20108;-85
2021/06/10 11:23:23;;;;;;;3.03;1.60;;;27.30;47.30;;;;;;5015798;28;20033;-87
2021/06/10 11:25:52;;;;;;;8.43;1.52;;;27.40;46.80;;;;;;5042567;28;20047;-87
2021/06/10 11:28:35;;;;;;;5.13;1.73;;;27.60;46.50;;;;;;5043820;28;20017;-89
2021/06/10 11:31:17;;;;;;;6.65;2.25;;;27.90;45.60;;;;;;5048788;28;20080;-84
2021/06/10 11:33:43;;;;;;;4.35;2.08;;;28.10;45.20;;;;;;5048705;28;20060;-87
2021/06/10 11:36:11;;;;;;;2.92;1.48;;;28.30;45.10;;;;;;5034793;28;20041;-87
2021/06/10 11:38:48;;;;;;;4.63;1.20;;;28.50;44.90;;;;;;5040013;28;20033;-86
2021/06/10 11:41:17;;;;;;;4.78;1.55;;;28.70;44.20;;;;;;5037615;28;20032;-86
2021/06/10 11:43:46;;;;;;;3.58;1.27;;;28.90;43.40;;;;;;5052506;28;20381;-87
2021/06/10 11:46:16;;;;;;;3.60;1.05;;;29.10;42.50;;;;;;5051953;28;20465;-89
2021/06/10 11:48:47;;;;;;;3.10;1.40;;;29.40;41.90;;;;;;5053066;28;20037;-88
2021/06/10 11:51:21;;;;;;;2.25;1.55;;;29.60;41.60;;;;;;5056925;28;20029;-86
2021/06/10 11:53:48;;;;;;;3.03;1.50;;;29.90;40.60;;;;;;5055692;28;20036;-87
2021/06/10 11:56:15;;;;;;;5.97;0.95;;;30.00;40.40;;;;;;5056862;28;20033;-87
2021/06/10 11:58:40;;;;;;;3.63;1.75;;;30.20;40.40;;;;;;5039304;28;20025;-87
2021/06/10 12:01:11;;;;;;;2.67;1.17;;;30.30;40.10;;;;;;5055861;28;20033;-89
2021/06/10 12:03:38;;;;;;;3.70;1.13;;;30.50;39.40;;;;;;5056381;28;20053;-88
2021/06/10 12:06:11;;;;;;;1.90;0.90;;;30.70;39.00;;;;;;5055739;28;20491;-92
2021/06/10 12:08:37;;;;;;;1.70;0.83;;;30.90;38.60;;;;;;5059030;28;20021;-95
2021/06/10 12:11:09;;;;;;;4.60;1.30;;;31.20;38.20;;;;;;5055859;28;20079;-89
2021/06/10 12:13:52;;;;;;;3.20;1.10;;;31.30;37.60;;;;;;5058014;28;20036;-93
2021/06/10 12:16:19;;;;;;;3.25;1.08;;;31.40;37.20;;;;;;5043734;28;20033;-93
2021/06/10 12:18:48;;;;;;;3.47;1.60;;;31.50;37.10;;;;;;5059567;28;20103;-92
2021/06/10 12:21:20;;;;;;;2.53;1.10;;;31.60;37.10;;;;;;5041109;28;20021;-93
2021/06/10 12:23:49;;;;;;;4.00;1.25;;;31.80;36.80;;;;;;5057102;28;20105;-91
2021/06/10 12:26:17;;;;;;;2.00;1.20;;;31.90;36.20;;;;;;5056812;28;20480;-93
2021/06/10 12:28:59;;;;;;;4.72;1.10;;;32.10;35.90;;;;;;5055469;28;20029;-89
2021/06/10 12:31:36;;;;;;;1.48;0.65;;;32.30;35.20;;;;;;5055175;28;20029;-88
2021/06/10 12:34:06;;;;;;;2.45;0.60;;;32.50;35.00;;;;;;5055706;28;20021;-90
2021/06/10 12:36:38;;;;;;;2.25;0.80;;;32.70;34.20;;;;;;5056317;28;20053;-87
2021/06/10 12:39:16;;;;;;;7.27;1.00;;;32.90;33.80;;;;;;5057318;28;20052;-90
2021/06/10 12:41:47;;;;;;;3.67;1.08;;;33.10;33.80;;;;;;5057879;28;20158;-89
2021/06/10 12:44:34;;;;;;;3.15;1.17;;;33.30;33.80;;;;;;5054808;28;20033;-90
2021/06/10 12:47:02;;;;;;;3.25;1.70;;;33.40;33.40;;;;;;5052377;28;20025;-88
2021/06/10 12:49:42;;;;;;;3.65;1.48;;;33.50;33.20;;;;;;5055036;28;20032;-86
2021/06/10 12:52:16;;;;;;;1.98;1.10;;;33.70;32.80;;;;;;5051336;28;20021;-89
2021/06/10 12:54:43;;;;;;;3.28;1.15;;;33.80;32.60;;;;;;5044249;28;20037;-88